Date,TemperatureHighF,TemperatureAvgF,TemperatureLowF,DewpointHighF,DewpointAvgF,DewpointLowF,HumidityHigh,HumidityAvg,HumidityLow,PressureMaxIn,PressureMinIn,WindSpeedMaxMPH,WindSpeedAvgMPH,GustSpeedMaxMPH,PrecipitationSumIn
2013-4-1,47.5,39.3,30.5,31.7,23.4,18.4,76,54,34,30.40,30.10,19,3,19,0.00
2013-4-2,50.5,38.4,25.6,26.5,21.4,15.1,82,53,29,30.49,30.38,10,1,12,0.00
2013-4-3,50.6,40.1,27.7,28.1,23.4,20.4,77,53,34,30.55,30.36,13,2,16,0.00
2013-4-4,62.7,48.5,32.2,32.9,28.4,25.0,80,49,29,30.36,30.13,9,0,11,0.00
2013-4-5,65.3,52.8,38.7,37.7,34.3,29.8,84,52,29,30.30,30.06,15,2,15,0.00
2013-4-6,72.1,62.7,54.3,52.7,42.9,36.9,59,49,37,30.06,29.73,27,6,28,0.00
2013-4-7,77.3,63.5,46.0,56.9,45.6,41.1,84,55,32,30.00,29.80,16,2,18,0.02
2013-4-8,75.0,65.1,55.7,62.4,57.9,50.8,91,78,64,29.89,29.68,17,2,18,1.03
2013-4-9,78.7,71.1,65.8,64.1,61.1,58.3,79,71,60,29.90,29.81,19,3,19,0.00
2013-4-10,70.0,53.8,47.0,63.8,50.4,43.9,94,89,76,30.02,29.73,22,3,22,1.30
2013-4-11,50.5,43.2,39.0,48.8,38.8,31.7,94,85,75,29.82,29.74,24,6,24,0.04
2013-4-12,43.2,40.3,37.6,36.3,33.8,31.4,82,77,74,30.10,29.79,21,6,21,0.00
2013-4-13,56.9,46.8,35.3,41.3,35.2,29.1,81,65,48,30.17,29.97,16,3,19,0.00
2013-4-14,80.3,64.4,49.3,55.8,47.6,41.2,89,58,31,29.97,29.59,26,5,26,0.52
2013-4-15,58.7,54.3,43.9,55.6,48.1,37.9,92,80,63,30.11,29.78,17,1,17,0.12
2013-4-16,50.0,45.9,41.3,43.3,39.3,36.8,89,78,65,30.31,30.08,15,2,15,0.07
2013-4-17,60.1,50.7,45.6,58.3,46.6,-99.9,94,87,74,30.27,29.71,26,5,26,2.37
2013-4-18,62.7,52.4,39.1,60.9,49.4,32.8,95,90,78,29.87,29.54,33,6,33,2.29
2013-4-19,47.6,41.3,37.0,33.1,30.2,27.1,79,65,49,30.18,29.84,27,7,29,0.00
2013-4-20,53.2,43.0,31.7,33.6,29.3,25.6,84,60,37,30.43,30.18,12,1,12,0.00
2013-4-21,62.7,52.1,42.4,44.4,38.5,32.0,70,60,49,30.48,30.30,18,4,18,0.00
2013-4-22,70.3,60.7,50.0,47.3,41.4,36.1,66,50,29,30.33,30.04,17,2,17,0.00
2013-4-23,59.7,44.0,38.0,48.9,39.9,35.9,92,86,62,30.17,30.00,16,2,16,0.55
2013-4-24,53.9,44.3,35.9,36.0,32.9,29.9,89,66,40,30.31,30.15,17,2,17,0.01
2013-4-25,63.9,52.7,41.7,38.0,35.0,31.2,81,54,33,30.43,30.27,23,2,23,0.00
2013-4-26,61.6,56.4,51.8,48.8,44.0,34.4,76,63,50,30.41,30.31,18,2,22,0.00
2013-4-27,53.9,51.3,47.9,50.2,47.4,43.6,92,87,75,30.37,30.07,9,0,9,0.04
2013-4-28,66.5,56.7,50.9,54.7,51.2,48.9,93,83,64,30.07,29.95,13,1,13,0.00
2013-4-29,84.9,67.4,50.8,65.0,56.4,47.4,89,70,43,29.98,29.75,17,2,17,0.00
2013-4-30,87.3,76.3,66.6,61.7,58.3,51.9,80,57,32,29.97,29.77,21,2,21,0.00